Time;durP1;ratioP1;P1;durP2;ratioP2;P2;SDS_P1;SDS_P2;PMS_P1;PMS_P2;Temp;Humidity;BMP_temperature;BMP_pressure;BME280_temperature;BME280_humidity;BME280_pressure;Samples;Min_cycle;Max_cycle;Signal;HPM_P1;HPM_P2
2021/12/02 00:03:18;;;;;;;;;;;;;;;4.08;100.00;95358.63;8415070;28;19919;-81
2021/12/02 00:07:19;;;;;;;;;;;;;;;3.94;100.00;95362.34;8418621;28;20362;-81
2021/12/02 00:11:19;;;;;;;;;;;;;;;3.88;100.00;95350.28;8416270;28;19912;-83
2021/12/02 00:15:23;;;;;;;;;;;;;;;3.80;100.00;95353.03;8403792;28;19918;-83
2021/12/02 00:24:00;;;;;;;;;;;;;;;3.63;100.00;95359.28;8403565;28;19920;-80
2021/12/02 00:28:01;;;;;;;;;;;;;;;3.58;100.00;95350.69;8390920;28;20031;-82
2021/12/02 00:32:03;;;;;;;;;;;;;;;3.58;100.00;95348.00;8418208;28;19923;-82
2021/12/02 00:36:04;;;;;;;;;;;;;;;3.55;100.00;95355.56;8418358;28;19912;-82
2021/12/02 00:40:05;;;;;;;;;;;;;;;3.50;100.00;95353.09;8417867;28;19958;-81
2021/12/02 00:44:05;;;;;;;;;;;;;;;3.42;100.00;95350.47;8417832;28;19962;-82
2021/12/02 00:48:06;;;;;;;;;;;;;;;3.37;100.00;95362.16;8417638;28;19916;-82
2021/12/02 00:52:07;;;;;;;;;;;;;;;3.25;100.00;95359.41;8435843;28;19916;-82
2021/12/02 00:56:09;;;;;;;;;;;;;;;3.19;100.00;95358.03;8417394;28;19961;-81
2021/12/02 01:00:10;;;;;;;;;;;;;;;3.16;100.00;95361.34;8416835;28;20017;-80
2021/12/02 01:04:13;;;;;;;;;;;;;;;3.09;100.00;95361.84;8435188;28;20408;-81
2021/12/02 01:08:13;;;;;;;;;;;;;;;3.00;100.00;95366.44;8416888;28;20281;-81
2021/12/02 01:12:14;;;;;;;;;;;;;;;2.91;100.00;95352.38;8405669;28;19913;-80
2021/12/02 01:16:15;;;;;;;;;;;;;;;2.85;100.00;95361.66;8382723;28;19912;-80
2021/12/02 01:20:15;;;;;;;;;;;;;;;2.83;100.00;95355.06;8382757;28;19919;-79
2021/12/02 01:24:16;;;;;;;;;;;;;;;2.86;100.00;95349.06;8383131;28;19913;-84
2021/12/02 01:28:17;;;;;;;;;;;;;;;2.91;100.00;95356.94;8391535;28;19920;-82
2021/12/02 01:32:17;;;;;;;;;;;;;;;2.94;100.00;95359.72;8416336;28;19913;-82
2021/12/02 01:36:19;;;;;;;;;;;;;;;2.97;100.00;95377.81;8433836;28;20011;-80
2021/12/02 01:40:19;;;;;;;;;;;;;;;3.03;100.00;95384.53;8416095;28;19912;-82
2021/12/02 01:44:20;;;;;;;;;;;;;;;3.02;100.00;95382.16;8433502;28;19912;-79
2021/12/02 01:48:23;;;;;;;;;;;;;;;3.05;100.00;95393.00;8415064;28;19920;-80
2021/12/02 01:52:44;;;;;;;;;;;;;;;3.11;100.00;95393.63;8415042;28;19957;-80
2021/12/02 01:56:46;;;;;;;;;;;;;;;3.09;100.00;95385.91;8415243;28;20379;-81
2021/12/02 02:00:49;;;;;;;;;;;;;;;3.06;100.00;95385.75;8414929;28;19913;-81
2021/12/02 02:04:50;;;;;;;;;;;;;;;3.04;100.00;95388.78;8414911;28;20388;-81
2021/12/02 02:08:51;;;;;;;;;;;;;;;2.92;100.00;95387.88;8414678;28;20405;-81
2021/12/02 02:12:53;;;;;;;;;;;;;;;2.84;100.00;95383.38;8398079;28;19949;-81
2021/12/02 02:16:55;;;;;;;;;;;;;;;2.75;100.00;95380.72;8381583;28;19979;-80
2021/12/02 02:21:03;;;;;;;;;;;;;;;2.69;100.00;95368.66;8380613;28;20286;-81
2021/12/02 02:25:06;;;;;;;;;;;;;;;2.65;100.00;95365.81;8380587;28;19920;-81
2021/12/02 02:29:07;;;;;;;;;;;;;;;2.63;100.00;95370.69;8395225;28;20352;-80
2021/12/02 02:33:10;;;;;;;;;;;;;;;2.61;100.00;95380.13;8413889;28;19967;-81
2021/12/02 02:37:10;;;;;;;;;;;;;;;2.50;100.00;95387.69;8414196;28;19912;-81
2021/12/02 02:41:12;;;;;;;;;;;;;;;2.46;100.00;95386.78;8414104;28;19912;-82
2021/12/02 02:45:12;;;;;;;;;;;;;;;2.32;100.00;95380.84;8413664;28;19947;-81
2021/12/02 02:49:13;;;;;;;;;;;;;;;2.26;100.00;95379.44;8413580;28;19917;-80
2021/12/02 02:53:17;;;;;;;;;;;;;;;2.19;100.00;95379.16;8413869;28;19912;-82
2021/12/02 02:57:20;;;;;;;;;;;;;;;2.15;100.00;95375.53;8413672;28;19916;-83
2021/12/02 03:10:14;;;;;;;;;;;;;;;1.92;100.00;95366.91;8432502;28;20005;-82
2021/12/02 03:14:19;;;;;;;;;;;;;;;1.84;100.00;95368.53;8413372;28;19951;-82
2021/12/02 03:18:19;;;;;;;;;;;;;;;1.78;100.00;95361.75;8413345;28;20022;-82
2021/12/02 03:22:20;;;;;;;;;;;;;;;1.80;100.00;95362.22;8413036;28;20341;-82
2021/12/02 03:26:20;;;;;;;;;;;;;;;1.76;100.00;95355.19;8430781;28;20374;-82
2021/12/02 03:30:21;;;;;;;;;;;;;;;1.73;100.00;95353.91;8413415;28;19959;-81
2021/12/02 03:34:21;;;;;;;;;;;;;;;1.76;100.00;95344.50;8412671;28;19916;-81
2021/12/02 03:38:21;;;;;;;;;;;;;;;1.74;100.00;95352.81;8412702;28;19916;-81
2021/12/02 03:42:21;;;;;;;;;;;;;;;1.73;100.00;95348.59;8412821;28;20007;-82
2021/12/02 03:46:23;;;;;;;;;;;;;;;1.69;100.00;95360.22;8412338;28;19974;-79
2021/12/02 03:50:23;;;;;;;;;;;;;;;1.71;100.00;95358.00;8411915;28;19964;-80
2021/12/02 03:54:24;;;;;;;;;;;;;;;1.73;100.00;95361.91;8412143;28;19912;-80
2021/12/02 03:58:24;;;;;;;;;;;;;;;1.77;100.00;95356.75;8412272;28;19920;-80
2021/12/02 04:02:25;;;;;;;;;;;;;;;1.84;100.00;95351.72;8411801;28;19919;-80
2021/12/02 04:06:25;;;;;;;;;;;;;;;1.92;100.00;95353.59;8411732;28;19917;-81
2021/12/02 04:10:26;;;;;;;;;;;;;;;1.95;100.00;95355.63;8411761;28;20285;-81
2021/12/02 04:14:31;;;;;;;;;;;;;;;2.02;100.00;95360.47;8382853;28;19919;-80
2021/12/02 04:18:31;;;;;;;;;;;;;;;2.05;100.00;95367.88;8378759;28;19916;-80
2021/12/02 04:22:31;;;;;;;;;;;;;;;2.08;100.00;95367.22;8378301;28;19912;-80
2021/12/02 04:26:32;;;;;;;;;;;;;;;2.08;100.00;95357.34;8378103;28;19924;-80
2021/12/02 04:30:32;;;;;;;;;;;;;;;2.10;100.00;95351.69;8404989;28;19965;-80
2021/12/02 04:34:32;;;;;;;;;;;;;;;2.09;100.00;95358.13;8411536;28;19912;-80
2021/12/02 04:38:33;;;;;;;;;;;;;;;2.15;100.00;95351.50;8411256;28;19912;-81
2021/12/02 04:42:33;;;;;;;;;;;;;;;2.20;100.00;95348.69;8411429;28;19934;-81
2021/12/02 04:46:34;;;;;;;;;;;;;;;2.16;100.00;95345.06;8411340;28;19916;-82
2021/12/02 04:50:34;;;;;;;;;;;;;;;2.18;100.00;95350.88;8414381;28;19981;-83
2021/12/02 04:54:34;;;;;;;;;;;;;;;2.21;100.00;95351.03;8418252;28;19950;-83
2021/12/02 04:58:35;;;;;;;;;;;;;;;2.18;100.00;95350.88;8417035;28;20003;-82
2021/12/02 05:02:35;;;;;;;;;;;;;;;2.19;100.00;95358.59;8435231;28;20394;-83
2021/12/02 05:06:35;;;;;;;;;;;;;;;2.18;100.00;95343.66;8417416;28;20006;-83
2021/12/02 05:10:35;;;;;;;;;;;;;;;2.18;100.00;95345.56;8417515;28;19912;-83
2021/12/02 05:14:36;;;;;;;;;;;;;;;2.18;100.00;95342.88;8386748;28;19970;-82
2021/12/02 05:18:36;;;;;;;;;;;;;;;2.19;100.00;95355.13;8401870;28;19940;-82
2021/12/02 05:22:36;;;;;;;;;;;;;;;2.23;100.00;95358.72;8383520;28;19918;-82
2021/12/02 05:26:37;;;;;;;;;;;;;;;2.24;100.00;95354.94;8382526;28;19921;-79
2021/12/02 05:30:37;;;;;;;;;;;;;;;2.23;100.00;95356.84;8382424;28;19923;-80
2021/12/02 05:34:37;;;;;;;;;;;;;;;2.20;100.00;95354.03;8382842;28;19912;-80
2021/12/02 05:38:38;;;;;;;;;;;;;;;2.19;100.00;95347.13;8382677;28;20389;-82
2021/12/02 05:42:38;;;;;;;;;;;;;;;2.16;100.00;95347.75;8400395;28;19912;-80
2021/12/02 05:46:38;;;;;;;;;;;;;;;2.14;100.00;95355.28;8406735;28;20395;-85
2021/12/02 05:50:39;;;;;;;;;;;;;;;2.14;100.00;95356.06;8416647;28;19975;-85
2021/12/02 05:54:39;;;;;;;;;;;;;;;2.15;100.00;95359.50;8416877;28;19912;-85
2021/12/02 05:58:39;;;;;;;;;;;;;;;2.13;100.00;95351.06;8416088;28;19916;-84
2021/12/02 06:02:39;;;;;;;;;;;;;;;2.15;100.00;95346.97;8398969;28;20245;-80
2021/12/02 06:06:41;;;;;;;;;;;;;;;2.13;100.00;95351.06;8399901;28;19927;-80
2021/12/02 06:10:42;;;;;;;;;;;;;;;2.13;100.00;95351.81;8399669;28;20353;-79
2021/12/02 06:14:42;;;;;;;;;;;;;;;2.12;100.00;95344.16;8416315;28;20304;-79
2021/12/02 06:18:43;;;;;;;;;;;;;;;2.08;100.00;95341.31;8408215;28;20369;-81
2021/12/02 06:22:51;;;;;;;;;;;;;;;1.99;100.00;95353.88;8412855;28;19916;-86
2021/12/02 06:26:52;;;;;;;;;;;;;;;2.00;100.00;95344.00;8400311;28;20369;-84
2021/12/02 06:30:52;;;;;;;;;;;;;;;1.96;100.00;95351.88;8414547;28;20629;-83
2021/12/02 06:35:29;;;;;;;;;;;;;;;1.86;100.00;95350.28;8402276;28;20349;-85
2021/12/02 06:39:30;;;;;;;;;;;;;;;1.78;100.00;95337.75;8414897;28;19958;-88
2021/12/02 06:43:30;;;;;;;;;;;;;;;1.70;100.00;95343.09;8382470;28;20398;-78
2021/12/02 06:47:34;;;;;;;;;;;;;;;1.63;100.00;95351.59;8381862;28;19966;-83
2021/12/02 06:51:34;;;;;;;;;;;;;;;;;;8410235;28;19916;-89
2021/12/02 06:56:10;;;;;;;;;;;;;;;2.65;100.00;95343.66;8356468;27;19921;-77
2021/12/02 07:00:13;;;;;;;;;;;;;;;2.57;100.00;95339.13;8344224;28;19924;-76
2021/12/02 07:04:14;;;;;;;;;;;;;;;2.36;100.00;95347.06;8363523;28;20012;-77
2021/12/02 07:08:14;;;;;;;;;;;;;;;2.21;100.00;95337.69;8341312;28;19913;-76
2021/12/02 07:12:28;;;;;;;;;;;;;;;2.07;100.00;95334.41;8382010;28;19923;-77
2021/12/02 07:16:28;;;;;;;;;;;;;;;1.94;100.00;95340.72;8344081;28;20394;-77
2021/12/02 07:20:34;;;;;;;;;;;;;;;1.94;100.00;95346.84;8344649;28;20031;-76
2021/12/02 07:24:34;;;;;;;;;;;;;;;1.90;100.00;95342.47;8336422;28;19955;-77
2021/12/02 07:28:36;;;;;;;;;;;;;;;1.89;100.00;95340.88;8350381;28;19913;-76
2021/12/02 07:32:40;;;;;;;;;;;;;;;1.96;100.00;95347.31;8352211;28;19936;-76
2021/12/02 07:36:40;;;;;;;;;;;;;;;1.99;100.00;95335.22;8353390;28;19967;-76
2021/12/02 07:40:45;;;;;;;;;;;;;;;2.19;100.00;95347.91;8349284;28;19913;-76
2021/12/02 07:44:54;;;;;;;;;;;;;;;2.88;100.00;95352.22;8351249;28;20054;-76
2021/12/02 07:48:55;;;;;;;;;;;;;;;3.25;100.00;95342.59;8348707;28;19920;-76
2021/12/02 07:52:58;;;;;;;;;;;;;;;3.37;100.00;95364.03;8359899;28;19971;-76
2021/12/02 07:56:58;;;;;;;;;;;;;;;3.53;100.00;95368.50;8371958;28;20290;-77
2021/12/02 08:01:00;;;;;;;;;;;;;;;3.45;100.00;95366.66;8369501;28;19942;-76
2021/12/02 08:05:34;;;;;;;;;;;;;;;3.31;100.00;95366.13;8340996;27;19991;-77
2021/12/02 08:09:37;;;;;;;;;;;;;;;3.24;100.00;95368.53;8342624;28;20022;-77
2021/12/02 08:13:50;;;;;;;;;;;;;;;3.15;100.00;95367.78;8350355;28;19970;-77
2021/12/02 08:17:51;;;;;;;;;;;;;;;3.33;100.00;95379.19;8340078;28;19993;-77
2021/12/02 08:21:52;;;;;;;;;;;;;;;3.45;100.00;95380.03;8384127;28;19917;-77
2021/12/02 08:25:55;;;;;;;;;;;;;;;3.46;100.00;95389.63;8363757;28;19932;-77
2021/12/02 08:29:55;;;;;;;;;;;;;;;3.42;100.00;95378.00;8350796;28;19913;-77
2021/12/02 08:33:58;;;;;;;;;;;;;;;3.46;100.00;95378.16;8355862;28;19917;-77
2021/12/02 08:38:05;;;;;;;;;;;;;;;3.55;100.00;95385.00;8352884;28;19913;-77
2021/12/02 08:42:06;;;;;;;;;;;;;;;3.72;100.00;95391.34;8349708;28;19917;-74
2021/12/02 08:46:06;;;;;;;;;;;;;;;3.84;100.00;95392.19;8343254;28;20370;-75
2021/12/02 08:50:07;;;;;;;;;;;;;;;3.92;100.00;95393.22;8345437;28;19913;-75
2021/12/02 08:54:07;;;;;;;;;;;;;;;3.94;100.00;95389.13;8348798;28;19928;-75
2021/12/02 08:58:15;;;;;;;;;;;;;;;3.89;100.00;95388.53;8343248;28;19980;-76
2021/12/02 09:02:15;;;;;;;;;;;;;;;3.86;100.00;95386.50;8358196;28;19927;-75
2021/12/02 09:06:21;;;;;;;;;;;;;;;4.05;100.00;95389.50;8379841;28;19916;-76
2021/12/02 09:10:21;;;;;;;;;;;;;;;4.26;100.00;95386.81;8402790;28;19995;-75
2021/12/02 09:14:21;;;;;;;;;;;;;;;4.38;100.00;95380.69;8403576;28;19927;-75
2021/12/02 09:18:22;;;;;;;;;;;;;;;4.33;100.00;95382.44;8388041;28;19916;-75
2021/12/02 09:22:23;;;;;;;;;;;;;;;4.34;100.00;95389.38;8361557;28;20437;-76
2021/12/02 09:26:23;;;;;;;;;;;;;;;4.48;100.00;95399.00;8325334;28;20044;-74
2021/12/02 09:30:25;;;;;;;;;;;;;;;4.57;100.00;95384.44;8328552;28;20016;-75
2021/12/02 09:34:26;;;;;;;;;;;;;;;4.69;100.00;95395.16;8345138;28;19917;-75
2021/12/02 09:38:27;;;;;;;;;;;;;;;4.65;100.00;95396.94;8347394;28;20013;-75
2021/12/02 09:42:28;;;;;;;;;;;;;;;4.59;100.00;95405.53;8358535;28;19932;-75
2021/12/02 09:46:28;;;;;;;;;;;;;;;4.41;100.00;95401.44;8369122;28;19955;-75
2021/12/02 09:50:33;;;;;;;;;;;;;;;4.38;100.00;95396.78;8354903;28;20008;-75
2021/12/02 09:54:48;;;;;;;;;;;;;;;4.22;100.00;95391.25;8359613;28;19952;-75
2021/12/02 09:58:51;;;;;;;;;;;;;;;4.11;100.00;95398.13;8345964;28;20022;-75
2021/12/02 10:03:04;;;;;;;;;;;;;;;4.16;100.00;95406.72;8354549;28;19921;-75
2021/12/02 10:07:06;;;;;;;;;;;;;;;4.03;100.00;95412.34;8351952;28;20000;-75
2021/12/02 10:11:10;;;;;;;;;;;;;;;3.55;100.00;95421.69;8356178;28;19917;-75
2021/12/02 10:15:14;;;;;;;;;;;;;;;2.94;100.00;95423.84;8362265;28;20290;-76
2021/12/02 10:19:21;;;;;;;;;;;;;;;3.01;100.00;95431.38;8358369;28;19913;-75
2021/12/02 10:23:37;;;;;;;;;;;;;;;2.94;100.00;95429.19;8393719;28;19921;-75
2021/12/02 10:27:57;;;;;;;;;;;;;;;2.75;100.00;95423.47;8364355;28;19920;-75
2021/12/02 10:32:12;;;;;;;;;;;;;;;2.66;100.00;95422.69;8359496;28;20028;-76
2021/12/02 10:36:39;;;;;;;;;;;;;;;2.65;100.00;95416.56;8376863;28;19917;-75
2021/12/02 10:40:55;;;;;;;;;;;;;;;2.71;100.00;95419.84;8376615;28;20386;-75
2021/12/02 10:45:00;;;;;;;;;;;;;;;2.74;100.00;95412.00;8392854;28;19924;-75
2021/12/02 10:49:02;;;;;;;;;;;;;;;2.82;100.00;95406.94;8350452;28;19920;-76
2021/12/02 10:53:06;;;;;;;;;;;;;;;2.87;100.00;95415.56;8388224;28;19919;-75
2021/12/02 10:57:15;;;;;;;;;;;;;;;2.77;100.00;95420.47;8343804;28;19940;-76
2021/12/02 11:01:36;;;;;;;;;;;;;;;2.67;100.00;95419.72;8361395;28;19913;-75
2021/12/02 11:05:43;;;;;;;;;;;;;;;2.60;100.00;95424.75;8362926;28;20019;-74
2021/12/02 11:09:44;;;;;;;;;;;;;;;2.38;100.00;95414.28;8347476;28;20040;-75
2021/12/02 11:13:48;;;;;;;;;;;;;;;2.47;100.00;95419.59;8354559;28;19944;-75
2021/12/02 11:17:54;;;;;;;;;;;;;;;2.42;100.00;95419.75;8342846;28;19923;-75
2021/12/02 11:22:02;;;;;;;;;;;;;;;2.47;100.00;95423.06;8394009;28;19912;-74
2021/12/02 11:26:11;;;;;;;;;;;;;;;2.50;100.00;95418.97;8358943;28;19986;-75
2021/12/02 11:30:11;;;;;;;;;;;;;;;2.50;100.00;95424.28;8356595;28;20366;-75
2021/12/02 11:34:12;;;;;;;;;;;;;;;2.49;100.00;95420.84;8356880;28;20366;-75
2021/12/02 11:38:19;;;;;;;;;;;;;;;2.34;100.00;95416.03;8360326;28;20298;-75
2021/12/02 11:42:20;;;;;;;;;;;;;;;2.44;100.00;95413.00;8355127;28;19931;-75
2021/12/02 11:46:20;;;;;;;;;;;;;;;2.55;100.00;95410.78;8346570;28;20319;-74
2021/12/02 11:50:22;;;;;;;;;;;;;;;2.67;100.00;95408.25;8356168;28;20329;-74
2021/12/02 11:54:22;;;;;;;;;;;;;;;2.75;100.00;95405.56;8357834;28;20027;-75
2021/12/02 11:58:26;;;;;;;;;;;;;;;2.79;100.00;95405.69;8378103;28;19924;-76
2021/12/02 12:02:27;;;;;;;;;;;;;;;2.85;100.00;95400.94;8357080;28;20231;-75
2021/12/02 12:06:29;;;;;;;;;;;;;;;2.99;100.00;95407.63;8353002;28;19999;-76
2021/12/02 12:10:31;;;;;;;;;;;;;;;2.96;100.00;95400.28;8369988;28;19913;-76
2021/12/02 12:14:36;;;;;;;;;;;;;;;3.08;100.00;95413.75;8353709;28;20373;-75
2021/12/02 12:18:39;;;;;;;;;;;;;;;3.14;100.00;95419.69;8367306;28;19974;-75
2021/12/02 12:22:39;;;;;;;;;;;;;;;3.29;100.00;95427.16;8359339;28;19920;-75
2021/12/02 12:26:42;;;;;;;;;;;;;;;3.34;100.00;95432.31;8370551;28;20435;-76
2021/12/02 12:30:43;;;;;;;;;;;;;;;3.20;100.00;95426.41;8364839;28;19944;-75
2021/12/02 12:34:59;;;;;;;;;;;;;;;3.24;100.00;95427.34;8364106;28;19916;-76
2021/12/02 12:39:33;;;;;;;;;;;;;;;3.31;100.00;95429.50;8362783;28;19912;-75
2021/12/02 12:43:36;;;;;;;;;;;;;;;3.27;100.00;95431.28;8328675;28;19925;-75
2021/12/02 12:47:39;;;;;;;;;;;;;;;3.22;100.00;95432.22;8366839;28;19979;-75
2021/12/02 12:51:53;;;;;;;;;;;;;;;3.20;100.00;95425.66;8347437;28;19921;-75
2021/12/02 12:55:55;;;;;;;;;;;;;;;3.17;100.00;95429.75;8347712;28;19925;-76
2021/12/02 13:00:07;;;;;;;;;;;;;;;3.11;100.00;95426.47;8356798;28;19918;-77
2021/12/02 13:04:07;;;;;;;;;;;;;;;3.29;100.00;95434.41;8352615;28;20334;-76
2021/12/02 13:12:54;;;;;;;;;;;;;;;3.29;100.00;95432.50;8359387;28;19929;-76
2021/12/02 13:16:55;;;;;;;;;;;;;;;3.30;100.00;95431.41;8349067;28;20421;-76
2021/12/02 13:20:55;;;;;;;;;;;;;;;3.11;100.00;95433.69;8366839;28;20342;-76
2021/12/02 13:24:55;;;;;;;;;;;;;;;3.19;100.00;95434.78;8359252;28;20008;-76
2021/12/02 13:29:06;;;;;;;;;;;;;;;3.10;100.00;95432.13;8357820;28;20370;-75
2021/12/02 13:33:06;;;;;;;;;;;;;;;3.15;100.00;95431.94;8367371;28;19920;-75
2021/12/02 13:37:07;;;;;;;;;;;;;;;3.09;100.00;95441.25;8354293;28;20297;-75
2021/12/02 13:41:17;;;;;;;;;;;;;;;3.09;100.00;95458.06;8356488;28;20313;-76
2021/12/02 13:45:42;;;;;;;;;;;;;;;3.10;100.00;95453.50;8362664;28;19921;-76
2021/12/02 13:49:47;;;;;;;;;;;;;;;2.28;100.00;95476.78;8344293;28;19920;-77
2021/12/02 13:53:50;;;;;;;;;;;;;;;2.55;100.00;95473.00;8347166;28;19913;-77
2021/12/02 16:01:44;;;;;;;;;;;;;;;19.80;53.55;95619.81;8325746;27;19925;-74
2021/12/02 16:13:42;;;;;;;;;;;;;;;22.48;49.97;95662.91;8344515;28;20015;-72
2021/12/02 16:21:34;;;;;;;;;;;;;;;20.91;55.21;95671.88;8289869;28;19925;-55
2021/12/02 16:25:35;;;;;;;;;;;;;;;20.58;56.26;95676.59;8286807;28;19929;-56
2021/12/02 16:29:35;;;;;;;;;;;;;;;20.53;56.49;95696.34;8289018;28;19917;-55
2021/12/02 16:49:01;;;;;;;;;;;;;;;20.84;55.67;95726.28;8305582;27;19990;-63
